createdAt,value
2019-04-14T00:00:14.292Z,3.70
2019-04-14T00:02:53.312Z,3.70
2019-04-14T00:05:23.778Z,3.23
2019-04-14T00:07:54.364Z,3.40
2019-04-14T00:10:24.805Z,3.80
2019-04-14T00:12:55.644Z,4.00
2019-04-14T00:15:32.959Z,3.57
2019-04-14T00:17:58.957Z,2.83
2019-04-14T00:20:29.458Z,2.80
2019-04-14T00:22:59.924Z,3.17
2019-04-14T00:25:30.566Z,2.43
2019-04-14T00:28:01.015Z,2.50
2019-04-14T00:30:31.691Z,2.83
2019-04-14T00:33:04.153Z,2.67
2019-04-14T00:35:53.866Z,2.60
2019-04-14T00:38:34.569Z,2.77
2019-04-14T00:41:17.991Z,2.57
2019-04-14T00:44:05.969Z,2.90
2019-04-14T00:47:01.134Z,2.50
2019-04-14T00:49:31.616Z,2.60
2019-04-14T00:52:02.166Z,2.60
2019-04-14T00:54:32.702Z,2.77
2019-04-14T00:57:03.224Z,2.63
2019-04-14T00:59:33.716Z,2.90
2019-04-14T01:02:05.574Z,2.43
2019-04-14T01:04:36.157Z,2.50
2019-04-14T01:07:06.596Z,1.97
2019-04-14T01:09:37.058Z,2.50
2019-04-14T01:12:08.220Z,2.40
2019-04-14T01:14:38.881Z,2.43
2019-04-14T01:17:09.495Z,2.43
2019-04-14T01:19:39.979Z,2.30
2019-04-14T01:22:10.423Z,2.17
2019-04-14T01:24:40.895Z,2.20
2019-04-14T01:27:12.435Z,2.20
2019-04-14T01:29:42.887Z,2.43
2019-04-14T01:32:13.354Z,2.17
2019-04-14T01:34:43.786Z,1.90
2019-04-14T01:37:14.254Z,2.40
2019-04-14T01:39:45.948Z,2.30
2019-04-14T01:42:16.556Z,2.20
2019-04-14T01:44:48.091Z,2.40
2019-04-14T01:47:18.663Z,2.60
2019-04-14T01:49:49.090Z,2.90
2019-04-14T01:52:50.407Z,2.47
2019-04-14T01:55:37.699Z,2.30
2019-04-14T01:58:12.212Z,2.57
2019-04-14T02:01:14.838Z,2.80
2019-04-14T02:03:45.590Z,2.90
2019-04-14T02:06:16.059Z,2.73
2019-04-14T02:08:47.716Z,2.57
2019-04-14T02:11:18.424Z,2.87
2019-04-14T02:13:48.881Z,2.97
2019-04-14T02:16:30.493Z,2.90
2019-04-14T02:18:53.572Z,3.37
2019-04-14T02:21:23.837Z,3.37
2019-04-14T02:23:54.275Z,3.43
2019-04-14T02:26:25.126Z,3.23
2019-04-14T02:28:57.188Z,3.00
2019-04-14T02:31:53.158Z,2.83
2019-04-14T02:34:34.576Z,3.80
2019-04-14T02:42:30.173Z,3.50
2019-04-14T02:44:38.041Z,2.90
2019-04-14T02:47:17.890Z,3.23
2019-04-14T02:49:49.251Z,3.43
2019-04-14T02:52:12.083Z,4.00
2019-04-14T02:54:51.751Z,4.00
2019-04-14T02:57:30.430Z,4.03
2019-04-14T02:59:54.424Z,3.50
2019-04-14T03:02:30.484Z,3.67
2019-04-14T03:04:56.847Z,2.83
2019-04-14T03:07:34.078Z,3.37
2019-04-14T03:09:53.773Z,2.87
2019-04-14T03:12:31.737Z,2.73
2019-04-14T03:15:01.889Z,2.70
2019-04-14T03:17:47.389Z,2.87
2019-04-14T03:20:47.618Z,3.30
2019-04-14T03:23:17.149Z,2.60
2019-04-14T03:26:09.640Z,3.30
2019-04-14T03:28:38.688Z,3.00
2019-04-14T03:31:41.683Z,3.40
2019-04-14T03:36:58.198Z,2.80
2019-04-14T03:43:50.782Z,2.80
2019-04-14T03:46:33.296Z,2.67
2019-04-14T03:49:10.071Z,2.90
2019-04-14T03:51:38.234Z,2.70
2019-04-14T03:53:59.096Z,2.37
2019-04-14T03:57:01.854Z,2.93
2019-04-14T03:59:32.409Z,2.40
2019-04-14T04:02:03.199Z,2.70
2019-04-14T04:04:33.840Z,2.70
2019-04-14T04:07:04.446Z,2.53
2019-04-14T04:09:41.785Z,2.80
2019-04-14T04:12:12.270Z,2.60
2019-04-14T04:14:42.705Z,2.50
2019-04-14T04:17:47.297Z,2.60
2019-04-14T04:20:37.134Z,2.67
2019-04-14T04:23:42.437Z,2.57
2019-04-14T04:26:39.326Z,2.90
2019-04-14T04:29:31.695Z,2.63
2019-04-14T04:32:21.017Z,2.00
2019-04-14T04:35:04.295Z,2.60
2019-04-14T04:37:50.149Z,2.00
2019-04-14T04:40:24.701Z,2.40
2019-04-14T04:42:55.236Z,2.17
2019-04-14T04:45:25.744Z,3.27
2019-04-14T04:47:56.221Z,3.27
2019-04-14T04:50:26.707Z,2.20
2019-04-14T04:52:58.219Z,2.57
2019-04-14T04:55:28.822Z,1.70
2019-04-14T04:57:59.320Z,2.00
2019-04-14T05:00:30.966Z,1.90
2019-04-14T05:03:01.478Z,3.10
2019-04-14T05:06:11.390Z,1.40
2019-04-14T05:08:48.510Z,2.07
2019-04-14T05:11:25.116Z,1.97
2019-04-14T05:13:56.228Z,1.33
2019-04-14T05:16:26.656Z,1.63
2019-04-14T05:19:10.580Z,1.47
2019-04-14T05:21:29.963Z,2.37
2019-04-14T05:24:00.688Z,1.70
2019-04-14T05:26:31.179Z,2.40
2019-04-14T05:29:01.625Z,1.60
2019-04-14T05:31:32.137Z,2.30
2019-04-14T05:34:02.598Z,1.60
2019-04-14T05:36:33.037Z,3.57
2019-04-14T05:39:04.633Z,1.90
2019-04-14T05:41:35.394Z,1.70
2019-04-14T05:44:06.393Z,3.17
2019-04-14T05:46:38.098Z,1.67
2019-04-14T05:49:08.662Z,1.90
2019-04-14T05:51:39.375Z,2.10
2019-04-14T05:54:10.041Z,2.13
2019-04-14T05:56:40.790Z,2.30
2019-04-14T05:59:11.409Z,2.67
2019-04-14T06:01:42.144Z,2.30
2019-04-14T06:04:13.610Z,3.37
2019-04-14T06:06:44.136Z,3.63
2019-04-14T06:09:14.579Z,3.20
2019-04-14T06:11:46.219Z,3.10
2019-04-14T06:14:16.729Z,3.40
2019-04-14T06:16:47.162Z,3.60
2019-04-14T06:19:17.602Z,3.23
2019-04-14T06:21:48.085Z,4.03
2019-04-14T06:24:18.535Z,4.13
2019-04-14T06:26:49.019Z,3.70
2019-04-14T06:29:19.498Z,3.60
2019-04-14T06:32:08.818Z,3.47
2019-04-14T06:34:46.313Z,3.70
2019-04-14T06:37:30.538Z,3.80
2019-04-14T06:40:01.152Z,3.80
2019-04-14T06:42:31.587Z,4.03
2019-04-14T06:45:02.072Z,3.80
2019-04-14T06:47:32.519Z,3.73
2019-04-14T06:50:02.993Z,4.10
2019-04-14T06:52:33.483Z,3.93
2019-04-14T06:55:04.019Z,4.10
2019-04-14T06:57:34.509Z,4.20
2019-04-14T07:00:05.406Z,4.63
2019-04-14T07:02:35.841Z,4.50
2019-04-14T07:05:06.671Z,4.63
2019-04-14T07:07:37.106Z,4.27
2019-04-14T07:10:07.608Z,3.50
2019-04-14T07:12:38.084Z,3.60
2019-04-14T07:15:08.839Z,3.80
2019-04-14T07:17:39.299Z,4.20
2019-04-14T07:20:10.086Z,3.50
2019-04-14T07:22:40.562Z,4.03
2019-04-14T07:25:11.119Z,3.37
2019-04-14T07:27:41.595Z,3.50
2019-04-14T07:30:31.402Z,3.30
2019-04-14T07:33:32.937Z,3.07
2019-04-14T07:36:20.675Z,3.17
2019-04-14T07:39:08.791Z,2.70
2019-04-14T07:41:51.265Z,2.80
2019-04-14T07:44:52.594Z,3.07
2019-04-14T07:47:37.002Z,2.70
2019-04-14T07:50:17.288Z,3.23
2019-04-14T07:53:18.393Z,2.97
2019-04-14T07:55:53.659Z,3.30
2019-04-14T07:58:48.829Z,2.80
2019-04-14T08:01:26.032Z,3.30
2019-04-14T08:04:14.164Z,3.13
2019-04-14T08:06:52.762Z,3.00
2019-04-14T08:09:23.389Z,3.17
2019-04-14T08:11:53.859Z,3.27
2019-04-14T08:14:24.340Z,3.33
2019-04-14T08:16:54.788Z,3.00
2019-04-14T08:19:25.274Z,3.77
2019-04-14T08:21:55.806Z,3.23
2019-04-14T08:24:26.400Z,2.87
2019-04-14T08:26:56.878Z,2.77
2019-04-14T08:29:27.355Z,3.13
2019-04-14T08:31:57.847Z,3.00
2019-04-14T08:34:28.284Z,2.60
2019-04-14T08:36:58.761Z,2.63
2019-04-14T08:39:29.195Z,2.27
2019-04-14T08:42:27.687Z,2.43
2019-04-14T08:45:00.107Z,2.30
2019-04-14T08:47:47.921Z,2.57
2019-04-14T08:50:39.608Z,2.67
2019-04-14T08:53:19.447Z,2.17
2019-04-14T08:56:07.435Z,2.90
2019-04-14T08:58:56.758Z,2.30
2019-04-14T09:01:36.270Z,2.40
2019-04-14T09:04:40.822Z,2.07
2019-04-14T09:07:24.365Z,2.00
2019-04-14T09:09:58.220Z,1.73
2019-04-14T09:12:32.028Z,1.70
2019-04-14T09:15:02.466Z,1.40
2019-04-14T09:17:32.916Z,1.70
2019-04-14T09:20:03.398Z,2.20
2019-04-14T09:22:33.842Z,2.03
2019-04-14T09:25:04.451Z,2.43
2019-04-14T09:27:34.943Z,1.90
2019-04-14T09:30:06.341Z,1.50
2019-04-14T09:32:36.819Z,1.83
2019-04-14T09:35:07.519Z,1.70
2019-04-14T09:37:37.997Z,2.37
2019-04-14T09:40:08.749Z,1.73
2019-04-14T09:42:39.350Z,1.90
2019-04-14T09:45:10.092Z,1.67
2019-04-14T09:47:40.514Z,2.00
2019-04-14T09:50:11.418Z,1.60
2019-04-14T09:52:41.858Z,1.10
2019-04-14T09:55:12.350Z,1.50
2019-04-14T09:57:42.788Z,1.70
2019-04-14T10:00:14.975Z,1.10
2019-04-14T10:02:45.434Z,1.10
2019-04-14T10:05:15.951Z,1.33
2019-04-14T10:07:46.431Z,1.07
2019-04-14T10:10:16.869Z,2.03
2019-04-14T10:12:47.348Z,2.03
2019-04-14T10:15:17.828Z,1.90
2019-04-14T10:17:48.266Z,2.13
2019-04-14T10:20:18.744Z,1.90
2019-04-14T10:22:52.537Z,2.20
2019-04-14T10:25:23.918Z,2.03
2019-04-14T10:27:54.799Z,1.97
2019-04-14T10:30:25.251Z,2.23
2019-04-14T10:32:55.731Z,2.20
2019-04-14T10:35:26.163Z,1.63
2019-04-14T10:37:56.733Z,1.60
2019-04-14T10:40:27.217Z,1.57
2019-04-14T10:42:57.695Z,1.83
2019-04-14T10:45:28.132Z,1.93
2019-04-14T10:47:58.612Z,1.90
2019-04-14T10:50:31.057Z,1.97
2019-04-14T10:53:01.336Z,1.57
2019-04-14T10:55:31.759Z,2.40
2019-04-14T10:58:02.202Z,1.90
2019-04-14T11:00:32.797Z,2.47
2019-04-14T11:03:03.349Z,2.43
2019-04-14T11:05:42.725Z,2.03
2019-04-14T11:08:13.197Z,1.60
2019-04-14T11:10:43.745Z,2.07
2019-04-14T11:13:14.219Z,1.63
2019-04-14T11:15:44.700Z,2.07
2019-04-14T11:18:15.368Z,1.73
2019-04-14T11:20:45.817Z,1.47
2019-04-14T11:23:16.402Z,1.60
2019-04-14T11:25:46.858Z,1.80
2019-04-14T11:28:17.334Z,1.80
2019-04-14T11:30:47.838Z,1.40
2019-04-14T11:33:37.163Z,1.70
2019-04-14T11:36:25.420Z,1.57
2019-04-14T11:39:02.958Z,2.47
2019-04-14T11:41:33.402Z,1.40
2019-04-14T11:44:04.460Z,1.57
2019-04-14T11:46:35.052Z,1.60
2019-04-14T11:49:05.872Z,1.67
2019-04-14T11:51:36.445Z,1.80
2019-04-14T11:54:06.932Z,1.63
2019-04-14T11:56:37.406Z,1.53
2019-04-14T11:59:07.891Z,1.37
2019-04-14T12:01:57.206Z,1.50
2019-04-14T12:04:52.604Z,1.97
2019-04-14T12:07:32.926Z,1.83
2019-04-14T12:10:17.119Z,1.93
2019-04-14T12:12:47.599Z,1.70
2019-04-14T12:15:18.074Z,2.50
2019-04-14T12:17:48.565Z,1.30
2019-04-14T12:20:19.051Z,1.27
2019-04-14T12:22:49.636Z,1.47
2019-04-14T12:25:20.103Z,1.10
2019-04-14T12:27:51.312Z,1.50
2019-04-14T12:30:22.399Z,1.10
2019-04-14T12:32:52.875Z,1.27
2019-04-14T12:35:23.418Z,1.00
2019-04-14T12:37:53.897Z,1.00
2019-04-14T12:40:24.332Z,0.97
2019-04-14T12:43:02.791Z,0.77
2019-04-14T12:45:58.119Z,1.40
2019-04-14T12:48:53.280Z,1.77
2019-04-14T12:51:28.031Z,1.37
2019-04-14T12:53:58.502Z,1.80
2019-04-14T12:56:29.635Z,1.70
2019-04-14T12:59:19.297Z,1.23
2019-04-14T13:02:20.941Z,1.60
2019-04-14T13:05:04.252Z,1.23
2019-04-14T13:07:36.892Z,1.50
2019-04-14T13:10:08.290Z,1.50
2019-04-14T13:12:40.397Z,1.30
2019-04-14T13:15:11.236Z,1.17
2019-04-14T13:17:41.711Z,1.23
2019-04-14T13:20:12.788Z,1.70
2019-04-14T13:22:43.359Z,1.00
2019-04-14T13:25:14.129Z,1.03
2019-04-14T13:27:44.766Z,1.20
2019-04-14T13:30:17.160Z,2.27
2019-04-14T13:32:47.788Z,1.80
2019-04-14T13:35:18.415Z,1.87
2019-04-14T13:37:49.073Z,1.30
2019-04-14T13:40:19.745Z,1.20
2019-04-14T13:42:50.222Z,1.40
2019-04-14T13:45:20.935Z,1.53
2019-04-14T13:47:51.597Z,1.50
2019-04-14T13:50:22.270Z,1.53
2019-04-14T13:52:52.748Z,1.40
2019-04-14T13:55:23.179Z,1.20
2019-04-14T13:57:53.916Z,1.33
2019-04-14T14:00:24.716Z,1.40
2019-04-14T14:02:55.148Z,1.43
2019-04-14T14:05:25.627Z,1.90
2019-04-14T14:07:56.186Z,1.40
2019-04-14T14:10:26.700Z,2.20
2019-04-14T14:13:03.379Z,1.30
2019-04-14T14:15:51.531Z,2.00
2019-04-14T14:18:31.622Z,1.20
2019-04-14T14:21:15.911Z,0.90
2019-04-14T14:24:03.618Z,4.47
2019-04-14T14:26:35.387Z,1.40
2019-04-14T14:29:06.212Z,1.93
2019-04-14T14:31:37.335Z,0.63
2019-04-14T14:34:08.195Z,1.50
2019-04-14T14:36:38.819Z,0.73
2019-04-14T14:39:10.564Z,1.10
2019-04-14T14:41:41.389Z,1.60
2019-04-14T14:44:12.051Z,1.57
2019-04-14T14:47:10.529Z,0.50
2019-04-14T14:50:05.688Z,0.60
2019-04-14T14:52:37.739Z,0.53
2019-04-14T14:55:08.757Z,0.60
2019-04-14T14:57:39.221Z,1.17
2019-04-14T15:00:18.328Z,1.20
2019-04-14T15:02:49.264Z,1.30
2019-04-14T15:05:19.859Z,1.10
2019-04-14T15:07:50.279Z,0.70
2019-04-14T15:10:20.814Z,0.80
2019-04-14T15:12:51.273Z,0.90
2019-04-14T15:15:21.747Z,1.60
2019-04-14T15:17:52.187Z,0.90
2019-04-14T15:20:22.767Z,2.27
2019-04-14T15:22:53.213Z,2.70
2019-04-14T15:25:23.784Z,1.20
2019-04-14T15:27:54.214Z,2.00
2019-04-14T15:30:24.783Z,0.93
2019-04-14T15:32:55.259Z,2.13
2019-04-14T15:35:25.740Z,1.30
2019-04-14T15:37:56.227Z,1.70
2019-04-14T15:40:26.762Z,2.17
2019-04-14T15:42:57.235Z,0.90
2019-04-14T15:45:27.755Z,1.00
2019-04-14T15:47:58.195Z,0.90
2019-04-14T15:50:28.670Z,1.30
2019-04-14T15:52:59.115Z,1.03
2019-04-14T15:55:29.599Z,0.80
2019-04-14T15:58:05.917Z,0.67
2019-04-14T16:01:01.211Z,1.40
2019-04-14T16:03:48.615Z,0.90
2019-04-14T16:06:46.698Z,0.83
2019-04-14T16:09:34.825Z,1.00
2019-04-14T16:12:27.216Z,1.60
2019-04-14T16:15:05.098Z,0.90
2019-04-14T16:17:52.776Z,1.53
2019-04-14T16:20:34.629Z,3.00
2019-04-14T16:23:05.137Z,1.40
2019-04-14T16:25:42.014Z,1.23
2019-04-14T16:28:18.175Z,2.80
2019-04-14T16:31:10.616Z,1.97
2019-04-14T16:33:58.522Z,1.57
2019-04-14T16:36:29.024Z,1.57
2019-04-14T16:38:59.470Z,1.17
2019-04-14T16:41:29.981Z,0.70
2019-04-14T16:44:00.392Z,0.90
2019-04-14T16:46:30.897Z,1.00
2019-04-14T16:49:01.395Z,1.37
2019-04-14T16:51:37.144Z,0.83
2019-04-14T16:54:18.193Z,0.80
2019-04-14T16:57:16.283Z,0.60
2019-04-14T16:59:46.783Z,0.77
2019-04-14T17:02:17.223Z,0.80
2019-04-14T17:04:47.707Z,0.83
2019-04-14T17:07:18.193Z,0.50
2019-04-14T17:09:48.634Z,0.43
2019-04-14T17:12:19.085Z,0.43
2019-04-14T17:14:56.768Z,0.40
2019-04-14T17:17:38.991Z,0.50
2019-04-14T17:20:35.391Z,0.30
2019-04-14T17:23:23.189Z,0.30
2019-04-14T17:26:02.069Z,0.53
2019-04-14T17:28:50.011Z,0.43
2019-04-14T17:31:28.522Z,1.07
2019-04-14T17:34:08.357Z,1.03
2019-04-14T17:36:54.166Z,0.77
2019-04-14T17:39:31.683Z,0.73
2019-04-14T17:42:16.254Z,1.23
2019-04-14T17:45:17.608Z,1.50
2019-04-14T17:48:15.756Z,1.10
2019-04-14T17:51:03.067Z,0.90
2019-04-14T17:53:54.166Z,1.60
2019-04-14T17:56:39.601Z,1.10
2019-04-14T17:59:21.898Z,1.97
2019-04-14T18:02:03.069Z,1.27
2019-04-14T18:05:07.340Z,0.83
2019-04-14T18:07:45.111Z,2.00
2019-04-14T18:10:37.204Z,1.03
2019-04-14T18:13:14.559Z,1.40
2019-04-14T18:15:55.326Z,3.17
2019-04-14T18:18:50.762Z,1.30
2019-04-14T18:21:21.202Z,2.87
2019-04-14T18:23:51.678Z,1.00
2019-04-14T18:26:22.150Z,0.87
2019-04-14T18:29:14.298Z,1.00
2019-04-14T18:32:03.613Z,1.20
2019-04-14T18:34:55.891Z,1.30
2019-04-14T18:37:48.048Z,1.33
2019-04-14T18:40:25.897Z,1.70
2019-04-14T18:43:18.404Z,2.40
2019-04-14T18:45:58.471Z,2.93
2019-04-14T18:48:53.687Z,2.30
2019-04-14T18:51:40.855Z,2.60
2019-04-14T18:54:27.036Z,2.50
2019-04-14T18:57:07.253Z,4.43
2019-04-14T18:59:56.584Z,4.80
2019-04-14T19:02:27.014Z,4.60
2019-04-14T19:04:57.507Z,4.83
2019-04-14T19:07:27.956Z,5.47
2019-04-14T19:09:58.400Z,5.50
2019-04-14T19:12:46.178Z,4.70
2019-04-14T19:15:35.728Z,3.50
2019-04-14T19:18:40.430Z,2.87
2019-04-14T19:21:13.635Z,2.60
2019-04-14T19:23:46.443Z,2.60
2019-04-14T19:26:16.385Z,2.50
2019-04-14T19:28:46.884Z,2.37
2019-04-14T19:31:17.430Z,2.60
2019-04-14T19:33:47.869Z,2.30
2019-04-14T19:36:18.329Z,2.70
2019-04-14T19:38:48.809Z,2.77
2019-04-14T19:41:19.240Z,2.83
2019-04-14T19:43:49.682Z,3.13
2019-04-14T19:46:20.158Z,3.70
2019-04-14T19:48:50.645Z,3.90
2019-04-14T19:51:21.129Z,3.97
2019-04-14T19:53:51.575Z,3.70
2019-04-14T19:56:22.062Z,3.43
2019-04-14T19:58:52.502Z,3.40
2019-04-14T20:01:22.979Z,3.63
2019-04-14T20:03:53.427Z,3.30
2019-04-14T20:06:23.918Z,3.53
2019-04-14T20:08:54.371Z,3.80
2019-04-14T20:11:24.928Z,3.50
2019-04-14T20:13:55.419Z,2.80
2019-04-14T20:16:56.768Z,2.73
2019-04-14T20:19:42.827Z,2.20
2019-04-14T20:22:24.684Z,2.93
2019-04-14T20:24:58.607Z,2.50
2019-04-14T20:27:47.999Z,3.17
2019-04-14T20:30:49.467Z,3.67
2019-04-14T20:33:20.028Z,4.43
2019-04-14T20:35:50.480Z,3.03
2019-04-14T20:38:20.923Z,3.50
2019-04-14T20:40:51.398Z,3.00
2019-04-14T20:43:22.150Z,3.10
2019-04-14T20:45:52.618Z,3.50
2019-04-14T20:48:23.086Z,2.70
2019-04-14T20:50:53.563Z,2.87
2019-04-14T20:53:25.273Z,2.70
2019-04-14T20:55:55.734Z,2.70
2019-04-14T20:58:26.217Z,2.57
2019-04-14T21:00:56.851Z,2.70
2019-04-14T21:03:48.980Z,3.10
2019-04-14T21:06:31.207Z,2.50
2019-04-14T21:09:19.054Z,2.83
2019-04-14T21:12:11.453Z,2.70
2019-04-14T21:15:00.775Z,2.90
2019-04-14T21:17:36.171Z,2.50
2019-04-14T21:20:32.405Z,3.40
2019-04-14T21:23:16.408Z,3.77
2019-04-14T21:26:01.318Z,8.10
2019-04-14T21:28:48.923Z,6.87
2019-04-14T21:31:35.278Z,4.50
2019-04-14T21:34:09.835Z,3.97
2019-04-14T21:36:59.246Z,5.10
2019-04-14T21:39:54.542Z,3.50
2019-04-14T21:42:25.015Z,3.40
2019-04-14T21:44:55.595Z,3.50
2019-04-14T21:47:26.033Z,3.13
2019-04-14T21:49:56.525Z,3.33
2019-04-14T21:52:45.794Z,3.50
2019-04-14T21:55:16.382Z,2.97
2019-04-14T21:58:04.161Z,2.60
2019-04-14T22:01:38.610Z,2.80
2019-04-14T22:04:40.022Z,2.80
2019-04-14T22:07:35.516Z,3.20
2019-04-14T22:10:27.145Z,2.83
2019-04-14T22:12:57.736Z,2.53
2019-04-14T22:15:28.192Z,2.97
2019-04-14T22:17:59.051Z,2.80
2019-04-14T22:20:29.502Z,2.77
2019-04-14T22:23:01.263Z,2.70
2019-04-14T22:25:31.769Z,3.10
2019-04-14T22:28:02.361Z,2.90
2019-04-14T22:30:32.944Z,2.77
2019-04-14T22:33:04.158Z,3.20
2019-04-14T22:35:34.650Z,3.00
2019-04-14T22:38:05.183Z,2.37
2019-04-14T22:40:35.720Z,3.40
2019-04-14T22:43:06.267Z,3.20
2019-04-14T22:45:36.871Z,2.70
2019-04-14T22:48:07.383Z,2.60
2019-04-14T22:50:37.857Z,2.80
2019-04-14T22:53:08.438Z,2.20
2019-04-14T22:55:38.876Z,2.03
2019-04-14T22:58:09.352Z,2.33
2019-04-14T23:00:50.581Z,2.50
2019-04-14T23:03:38.768Z,1.80
2019-04-14T23:06:21.934Z,2.60
2019-04-14T23:08:59.730Z,2.30
2019-04-14T23:11:52.034Z,2.37
2019-04-14T23:14:30.159Z,2.20
2019-04-14T23:17:19.600Z,2.30
2019-04-14T23:19:55.615Z,2.00
2019-04-14T23:22:39.188Z,1.60
2019-04-14T23:25:09.932Z,1.93
2019-04-14T23:27:40.380Z,1.53
2019-04-14T23:30:11.014Z,1.93
2019-04-14T23:32:41.494Z,1.93
2019-04-14T23:35:12.170Z,2.27
2019-04-14T23:37:42.700Z,2.03
2019-04-14T23:40:13.372Z,3.53
2019-04-14T23:42:43.902Z,2.27
2019-04-14T23:45:14.559Z,3.33
2019-04-14T23:47:45.008Z,2.47
2019-04-14T23:50:15.803Z,2.90
2019-04-14T23:52:46.247Z,2.60
2019-04-14T23:55:16.834Z,3.00
2019-04-14T23:57:47.311Z,2.80
